sensor_id;sensor_type;location;lat;lon;timestamp;P1;durP1;ratioP1;P2;durP2;ratioP2
72156;SDS011;60035;52.122;5.406;2023-07-29T00:00:04;4.55;;;1.55;;
72156;SDS011;60035;52.122;5.406;2023-07-29T00:02:32;2.88;;;1.30;;
72156;SDS011;60035;52.122;5.406;2023-07-29T00:04:59;3.67;;;1.17;;
72156;SDS011;60035;52.122;5.406;2023-07-29T00:07:25;4.13;;;1.33;;
72156;SDS011;60035;52.122;5.406;2023-07-29T00:09:52;3.25;;;1.33;;
72156;SDS011;60035;52.122;5.406;2023-07-29T00:12:19;2.70;;;1.10;;
72156;SDS011;60035;52.122;5.406;2023-07-29T00:14:45;2.90;;;1.10;;
72156;SDS011;60035;52.122;5.406;2023-07-29T00:17:12;2.72;;;1.00;;
72156;SDS011;60035;52.122;5.406;2023-07-29T00:19:38;3.00;;;1.10;;
72156;SDS011;60035;52.122;5.406;2023-07-29T00:22:05;4.07;;;1.02;;
72156;SDS011;60035;52.122;5.406;2023-07-29T00:24:32;3.78;;;1.02;;
72156;SDS011;60035;52.122;5.406;2023-07-29T00:26:58;3.03;;;1.10;;
72156;SDS011;60035;52.122;5.406;2023-07-29T00:29:25;3.90;;;1.00;;
72156;SDS011;60035;52.122;5.406;2023-07-29T00:31:51;2.92;;;1.10;;
72156;SDS011;60035;52.122;5.406;2023-07-29T00:34:18;3.20;;;1.13;;
72156;SDS011;60035;52.122;5.406;2023-07-29T00:36:45;3.67;;;1.02;;
72156;SDS011;60035;52.122;5.406;2023-07-29T00:39:13;3.55;;;1.02;;
72156;SDS011;60035;52.122;5.406;2023-07-29T00:41:40;3.67;;;1.30;;
72156;SDS011;60035;52.122;5.406;2023-07-29T00:44:06;4.25;;;1.20;;
72156;SDS011;60035;52.122;5.406;2023-07-29T00:46:34;3.25;;;1.13;;
72156;SDS011;60035;52.122;5.406;2023-07-29T00:49:01;3.42;;;1.00;;
72156;SDS011;60035;52.122;5.406;2023-07-29T00:51:31;3.55;;;1.00;;
72156;SDS011;60035;52.122;5.406;2023-07-29T00:53:57;3.10;;;1.13;;
72156;SDS011;60035;52.122;5.406;2023-07-29T00:56:24;2.78;;;0.80;;
72156;SDS011;60035;52.122;5.406;2023-07-29T00:58:50;3.85;;;0.93;;
72156;SDS011;60035;52.122;5.406;2023-07-29T01:01:22;3.80;;;1.27;;
72156;SDS011;60035;52.122;5.406;2023-07-29T01:03:49;3.53;;;0.80;;
72156;SDS011;60035;52.122;5.406;2023-07-29T01:09:48;4.53;;;1.10;;
72156;SDS011;60035;52.122;5.406;2023-07-29T01:12:22;3.15;;;1.10;;
72156;SDS011;60035;52.122;5.406;2023-07-29T01:14:59;5.68;;;1.40;;
72156;SDS011;60035;52.122;5.406;2023-07-29T01:17:35;2.80;;;1.13;;
72156;SDS011;60035;52.122;5.406;2023-07-29T01:20:23;5.00;;;1.30;;
72156;SDS011;60035;52.122;5.406;2023-07-29T01:22:51;3.67;;;1.05;;
72156;SDS011;60035;52.122;5.406;2023-07-29T01:25:17;4.00;;;1.40;;
72156;SDS011;60035;52.122;5.406;2023-07-29T01:27:44;5.00;;;1.40;;
72156;SDS011;60035;52.122;5.406;2023-07-29T01:30:12;4.07;;;1.10;;
72156;SDS011;60035;52.122;5.406;2023-07-29T01:35:28;6.60;;;1.63;;
72156;SDS011;60035;52.122;5.406;2023-07-29T01:38:05;4.85;;;1.48;;
72156;SDS011;60035;52.122;5.406;2023-07-29T01:40:35;5.82;;;1.60;;
72156;SDS011;60035;52.122;5.406;2023-07-29T01:43:02;3.95;;;1.60;;
72156;SDS011;60035;52.122;5.406;2023-07-29T01:45:29;4.80;;;1.60;;
72156;SDS011;60035;52.122;5.406;2023-07-29T01:47:58;6.82;;;1.73;;
72156;SDS011;60035;52.122;5.406;2023-07-29T01:50:24;5.40;;;1.85;;
72156;SDS011;60035;52.122;5.406;2023-07-29T01:52:51;4.85;;;1.83;;
72156;SDS011;60035;52.122;5.406;2023-07-29T01:55:17;4.95;;;1.60;;
72156;SDS011;60035;52.122;5.406;2023-07-29T01:57:44;4.03;;;1.27;;
72156;SDS011;60035;52.122;5.406;2023-07-29T02:00:11;5.20;;;1.65;;
72156;SDS011;60035;52.122;5.406;2023-07-29T02:02:38;5.70;;;1.80;;
72156;SDS011;60035;52.122;5.406;2023-07-29T02:05:04;6.47;;;2.00;;
72156;SDS011;60035;52.122;5.406;2023-07-29T02:07:31;5.50;;;1.40;;
72156;SDS011;60035;52.122;5.406;2023-07-29T02:09:57;7.57;;;2.30;;
72156;SDS011;60035;52.122;5.406;2023-07-29T02:12:24;9.25;;;1.73;;
72156;SDS011;60035;52.122;5.406;2023-07-29T02:14:51;8.60;;;2.17;;
72156;SDS011;60035;52.122;5.406;2023-07-29T02:17:17;7.40;;;2.17;;
72156;SDS011;60035;52.122;5.406;2023-07-29T02:19:44;6.97;;;2.03;;
72156;SDS011;60035;52.122;5.406;2023-07-29T02:22:12;9.20;;;2.20;;
72156;SDS011;60035;52.122;5.406;2023-07-29T02:24:40;8.10;;;2.47;;
72156;SDS011;60035;52.122;5.406;2023-07-29T02:27:07;7.45;;;2.95;;
72156;SDS011;60035;52.122;5.406;2023-07-29T02:29:33;9.18;;;2.95;;
72156;SDS011;60035;52.122;5.406;2023-07-29T02:32:00;8.00;;;2.45;;
72156;SDS011;60035;52.122;5.406;2023-07-29T02:34:26;9.55;;;3.20;;
72156;SDS011;60035;52.122;5.406;2023-07-29T02:36:53;7.35;;;2.72;;
72156;SDS011;60035;52.122;5.406;2023-07-29T02:39:20;8.07;;;2.78;;
72156;SDS011;60035;52.122;5.406;2023-07-29T02:41:46;8.65;;;2.80;;
72156;SDS011;60035;52.122;5.406;2023-07-29T02:44:13;7.85;;;3.08;;
72156;SDS011;60035;52.122;5.406;2023-07-29T02:46:39;8.23;;;3.35;;
72156;SDS011;60035;52.122;5.406;2023-07-29T02:49:06;8.38;;;3.13;;
72156;SDS011;60035;52.122;5.406;2023-07-29T02:51:32;8.98;;;3.47;;
72156;SDS011;60035;52.122;5.406;2023-07-29T02:53:59;9.40;;;3.22;;
72156;SDS011;60035;52.122;5.406;2023-07-29T02:56:25;9.05;;;3.05;;
72156;SDS011;60035;52.122;5.406;2023-07-29T02:58:52;11.40;;;3.42;;
72156;SDS011;60035;52.122;5.406;2023-07-29T03:01:18;8.48;;;2.72;;
72156;SDS011;60035;52.122;5.406;2023-07-29T03:03:45;10.02;;;3.22;;
72156;SDS011;60035;52.122;5.406;2023-07-29T03:06:13;9.15;;;3.50;;
72156;SDS011;60035;52.122;5.406;2023-07-29T03:08:40;8.77;;;3.55;;
72156;SDS011;60035;52.122;5.406;2023-07-29T03:11:08;7.40;;;3.10;;
72156;SDS011;60035;52.122;5.406;2023-07-29T03:13:36;8.13;;;3.08;;
72156;SDS011;60035;52.122;5.406;2023-07-29T03:16:10;11.90;;;3.60;;
72156;SDS011;60035;52.122;5.406;2023-07-29T03:18:41;8.95;;;2.97;;
72156;SDS011;60035;52.122;5.406;2023-07-29T03:21:09;10.70;;;3.50;;
72156;SDS011;60035;52.122;5.406;2023-07-29T03:23:37;8.57;;;3.25;;
72156;SDS011;60035;52.122;5.406;2023-07-29T03:26:04;9.00;;;3.13;;
72156;SDS011;60035;52.122;5.406;2023-07-29T03:28:42;8.43;;;3.38;;
72156;SDS011;60035;52.122;5.406;2023-07-29T03:31:10;11.55;;;4.28;;
72156;SDS011;60035;52.122;5.406;2023-07-29T03:33:37;8.73;;;3.05;;
72156;SDS011;60035;52.122;5.406;2023-07-29T03:36:04;9.30;;;2.95;;
72156;SDS011;60035;52.122;5.406;2023-07-29T03:38:31;7.38;;;2.95;;
72156;SDS011;60035;52.122;5.406;2023-07-29T03:40:59;9.75;;;3.10;;
72156;SDS011;60035;52.122;5.406;2023-07-29T03:43:25;8.38;;;3.58;;
72156;SDS011;60035;52.122;5.406;2023-07-29T03:45:52;8.82;;;3.33;;
72156;SDS011;60035;52.122;5.406;2023-07-29T03:48:19;10.00;;;3.42;;
72156;SDS011;60035;52.122;5.406;2023-07-29T03:50:45;9.23;;;3.40;;
72156;SDS011;60035;52.122;5.406;2023-07-29T03:53:11;8.18;;;3.28;;
72156;SDS011;60035;52.122;5.406;2023-07-29T03:55:38;8.82;;;3.65;;
72156;SDS011;60035;52.122;5.406;2023-07-29T03:58:04;11.15;;;4.63;;
72156;SDS011;60035;52.122;5.406;2023-07-29T04:00:31;10.10;;;3.25;;
72156;SDS011;60035;52.122;5.406;2023-07-29T04:02:58;9.07;;;3.53;;
72156;SDS011;60035;52.122;5.406;2023-07-29T04:05:24;8.10;;;3.13;;
72156;SDS011;60035;52.122;5.406;2023-07-29T04:07:51;7.18;;;2.95;;
72156;SDS011;60035;52.122;5.406;2023-07-29T04:10:20;7.47;;;3.00;;
72156;SDS011;60035;52.122;5.406;2023-07-29T04:12:46;6.47;;;2.55;;
72156;SDS011;60035;52.122;5.406;2023-07-29T04:15:13;7.85;;;2.50;;
72156;SDS011;60035;52.122;5.406;2023-07-29T04:17:39;7.38;;;2.20;;
72156;SDS011;60035;52.122;5.406;2023-07-29T04:20:06;7.63;;;2.10;;
72156;SDS011;60035;52.122;5.406;2023-07-29T04:22:34;6.05;;;2.25;;
72156;SDS011;60035;52.122;5.406;2023-07-29T04:25:00;6.60;;;2.20;;
72156;SDS011;60035;52.122;5.406;2023-07-29T04:27:27;5.75;;;2.00;;
72156;SDS011;60035;52.122;5.406;2023-07-29T04:29:53;5.57;;;1.85;;
72156;SDS011;60035;52.122;5.406;2023-07-29T04:32:20;5.60;;;1.83;;
72156;SDS011;60035;52.122;5.406;2023-07-29T04:34:46;7.20;;;2.40;;
72156;SDS011;60035;52.122;5.406;2023-07-29T04:37:13;7.22;;;1.85;;
72156;SDS011;60035;52.122;5.406;2023-07-29T04:39:39;7.43;;;1.90;;
72156;SDS011;60035;52.122;5.406;2023-07-29T04:42:06;6.97;;;1.98;;
72156;SDS011;60035;52.122;5.406;2023-07-29T04:44:32;5.88;;;2.08;;
72156;SDS011;60035;52.122;5.406;2023-07-29T04:46:59;6.07;;;1.88;;
72156;SDS011;60035;52.122;5.406;2023-07-29T04:49:26;5.75;;;1.88;;
72156;SDS011;60035;52.122;5.406;2023-07-29T04:51:52;5.70;;;1.95;;
72156;SDS011;60035;52.122;5.406;2023-07-29T04:54:18;5.32;;;1.73;;
72156;SDS011;60035;52.122;5.406;2023-07-29T04:56:47;4.68;;;1.73;;
72156;SDS011;60035;52.122;5.406;2023-07-29T04:59:13;4.80;;;1.48;;
72156;SDS011;60035;52.122;5.406;2023-07-29T05:01:40;6.22;;;1.73;;
72156;SDS011;60035;52.122;5.406;2023-07-29T05:04:08;5.00;;;1.67;;
72156;SDS011;60035;52.122;5.406;2023-07-29T05:06:35;5.07;;;1.65;;
72156;SDS011;60035;52.122;5.406;2023-07-29T05:11:42;6.35;;;1.77;;
72156;SDS011;60035;52.122;5.406;2023-07-29T05:14:12;5.88;;;1.73;;
72156;SDS011;60035;52.122;5.406;2023-07-29T05:16:40;5.70;;;1.73;;
72156;SDS011;60035;52.122;5.406;2023-07-29T05:19:07;4.72;;;1.60;;
72156;SDS011;60035;52.122;5.406;2023-07-29T05:21:34;3.72;;;1.42;;
72156;SDS011;60035;52.122;5.406;2023-07-29T05:24:00;5.90;;;1.98;;
72156;SDS011;60035;52.122;5.406;2023-07-29T05:26:27;5.30;;;1.55;;
72156;SDS011;60035;52.122;5.406;2023-07-29T05:28:53;6.72;;;1.92;;
72156;SDS011;60035;52.122;5.406;2023-07-29T05:31:20;5.30;;;1.98;;
72156;SDS011;60035;52.122;5.406;2023-07-29T05:33:49;4.93;;;1.85;;
72156;SDS011;60035;52.122;5.406;2023-07-29T05:36:15;5.75;;;1.83;;
72156;SDS011;60035;52.122;5.406;2023-07-29T05:38:42;6.80;;;1.95;;
72156;SDS011;60035;52.122;5.406;2023-07-29T05:41:08;5.20;;;1.85;;
72156;SDS011;60035;52.122;5.406;2023-07-29T05:43:35;6.78;;;2.30;;
72156;SDS011;60035;52.122;5.406;2023-07-29T05:46:01;6.75;;;2.10;;
72156;SDS011;60035;52.122;5.406;2023-07-29T05:48:28;6.35;;;2.10;;
72156;SDS011;60035;52.122;5.406;2023-07-29T05:50:54;6.63;;;2.35;;
72156;SDS011;60035;52.122;5.406;2023-07-29T05:53:21;6.45;;;2.10;;
72156;SDS011;60035;52.122;5.406;2023-07-29T05:55:48;7.00;;;2.50;;
72156;SDS011;60035;52.122;5.406;2023-07-29T05:58:15;6.28;;;2.10;;
72156;SDS011;60035;52.122;5.406;2023-07-29T06:00:41;6.20;;;2.17;;
72156;SDS011;60035;52.122;5.406;2023-07-29T06:03:08;5.93;;;2.15;;
72156;SDS011;60035;52.122;5.406;2023-07-29T06:05:35;7.03;;;2.00;;
72156;SDS011;60035;52.122;5.406;2023-07-29T06:08:02;8.80;;;2.00;;
72156;SDS011;60035;52.122;5.406;2023-07-29T06:10:31;6.93;;;2.00;;
72156;SDS011;60035;52.122;5.406;2023-07-29T06:12:58;6.32;;;2.17;;
72156;SDS011;60035;52.122;5.406;2023-07-29T06:15:24;8.85;;;2.45;;
72156;SDS011;60035;52.122;5.406;2023-07-29T06:17:51;8.07;;;2.60;;
72156;SDS011;60035;52.122;5.406;2023-07-29T06:20:22;8.40;;;3.05;;
72156;SDS011;60035;52.122;5.406;2023-07-29T06:22:48;8.57;;;2.55;;
72156;SDS011;60035;52.122;5.406;2023-07-29T06:25:15;7.55;;;2.40;;
72156;SDS011;60035;52.122;5.406;2023-07-29T06:27:41;8.88;;;2.97;;
72156;SDS011;60035;52.122;5.406;2023-07-29T06:30:08;7.97;;;2.60;;
72156;SDS011;60035;52.122;5.406;2023-07-29T06:32:35;8.70;;;2.97;;
72156;SDS011;60035;52.122;5.406;2023-07-29T06:35:02;8.40;;;2.90;;
72156;SDS011;60035;52.122;5.406;2023-07-29T06:37:28;9.25;;;2.92;;
72156;SDS011;60035;52.122;5.406;2023-07-29T06:39:55;7.30;;;2.60;;
72156;SDS011;60035;52.122;5.406;2023-07-29T06:42:21;8.45;;;2.90;;
72156;SDS011;60035;52.122;5.406;2023-07-29T06:44:48;8.88;;;3.05;;
72156;SDS011;60035;52.122;5.406;2023-07-29T06:47:15;7.93;;;2.90;;
72156;SDS011;60035;52.122;5.406;2023-07-29T06:49:41;8.73;;;2.90;;
72156;SDS011;60035;52.122;5.406;2023-07-29T06:52:08;9.50;;;3.33;;
72156;SDS011;60035;52.122;5.406;2023-07-29T06:54:34;7.85;;;2.90;;
72156;SDS011;60035;52.122;5.406;2023-07-29T06:57:00;8.63;;;2.78;;
72156;SDS011;60035;52.122;5.406;2023-07-29T06:59:27;7.65;;;2.97;;
72156;SDS011;60035;52.122;5.406;2023-07-29T07:01:54;8.38;;;3.97;;
72156;SDS011;60035;52.122;5.406;2023-07-29T07:04:20;8.50;;;3.50;;
72156;SDS011;60035;52.122;5.406;2023-07-29T07:06:47;9.50;;;3.72;;
72156;SDS011;60035;52.122;5.406;2023-07-29T07:09:13;7.63;;;3.53;;
72156;SDS011;60035;52.122;5.406;2023-07-29T07:11:39;9.32;;;3.78;;
72156;SDS011;60035;52.122;5.406;2023-07-29T07:14:06;7.82;;;3.75;;
72156;SDS011;60035;52.122;5.406;2023-07-29T07:16:32;9.57;;;3.88;;
72156;SDS011;60035;52.122;5.406;2023-07-29T07:19:00;8.98;;;3.22;;
72156;SDS011;60035;52.122;5.406;2023-07-29T07:21:26;6.85;;;3.35;;
72156;SDS011;60035;52.122;5.406;2023-07-29T07:23:53;10.55;;;3.85;;
72156;SDS011;60035;52.122;5.406;2023-07-29T07:26:19;8.32;;;3.45;;
72156;SDS011;60035;52.122;5.406;2023-07-29T07:28:46;10.93;;;3.47;;
72156;SDS011;60035;52.122;5.406;2023-07-29T07:31:12;8.55;;;4.05;;
72156;SDS011;60035;52.122;5.406;2023-07-29T07:33:39;8.48;;;3.92;;
72156;SDS011;60035;52.122;5.406;2023-07-29T07:36:05;9.15;;;3.65;;
72156;SDS011;60035;52.122;5.406;2023-07-29T07:38:32;8.57;;;4.10;;
72156;SDS011;60035;52.122;5.406;2023-07-29T07:40:58;8.13;;;3.55;;
72156;SDS011;60035;52.122;5.406;2023-07-29T07:43:25;7.47;;;3.75;;
72156;SDS011;60035;52.122;5.406;2023-07-29T07:45:57;9.60;;;3.90;;
72156;SDS011;60035;52.122;5.406;2023-07-29T07:48:25;8.40;;;3.88;;
72156;SDS011;60035;52.122;5.406;2023-07-29T07:50:52;10.60;;;3.85;;
72156;SDS011;60035;52.122;5.406;2023-07-29T07:53:18;8.10;;;3.50;;
72156;SDS011;60035;52.122;5.406;2023-07-29T07:55:46;8.15;;;4.00;;
72156;SDS011;60035;52.122;5.406;2023-07-29T07:58:13;9.05;;;4.05;;
72156;SDS011;60035;52.122;5.406;2023-07-29T08:00:39;8.70;;;4.22;;
72156;SDS011;60035;52.122;5.406;2023-07-29T08:03:06;8.55;;;3.63;;
72156;SDS011;60035;52.122;5.406;2023-07-29T08:05:32;7.80;;;3.72;;
72156;SDS011;60035;52.122;5.406;2023-07-29T08:07:59;9.13;;;3.53;;
72156;SDS011;60035;52.122;5.406;2023-07-29T08:10:26;8.52;;;3.40;;
72156;SDS011;60035;52.122;5.406;2023-07-29T08:12:52;6.90;;;3.00;;
72156;SDS011;60035;52.122;5.406;2023-07-29T08:15:19;6.32;;;2.92;;
72156;SDS011;60035;52.122;5.406;2023-07-29T08:17:45;7.50;;;3.70;;
72156;SDS011;60035;52.122;5.406;2023-07-29T08:20:12;6.85;;;3.20;;
72156;SDS011;60035;52.122;5.406;2023-07-29T08:22:39;7.45;;;2.90;;
72156;SDS011;60035;52.122;5.406;2023-07-29T08:25:05;7.20;;;2.97;;
72156;SDS011;60035;52.122;5.406;2023-07-29T08:27:33;6.97;;;2.63;;
72156;SDS011;60035;52.122;5.406;2023-07-29T08:30:00;7.00;;;3.35;;
72156;SDS011;60035;52.122;5.406;2023-07-29T08:32:27;6.57;;;2.85;;
72156;SDS011;60035;52.122;5.406;2023-07-29T08:34:54;5.72;;;2.60;;
72156;SDS011;60035;52.122;5.406;2023-07-29T08:37:20;7.10;;;3.22;;
72156;SDS011;60035;52.122;5.406;2023-07-29T08:39:47;6.60;;;3.20;;
72156;SDS011;60035;52.122;5.406;2023-07-29T08:42:13;7.95;;;2.97;;
72156;SDS011;60035;52.122;5.406;2023-07-29T08:44:45;6.88;;;2.70;;
72156;SDS011;60035;52.122;5.406;2023-07-29T08:47:14;6.47;;;2.70;;
72156;SDS011;60035;52.122;5.406;2023-07-29T08:49:42;5.82;;;3.00;;
72156;SDS011;60035;52.122;5.406;2023-07-29T08:52:11;4.60;;;2.53;;
72156;SDS011;60035;52.122;5.406;2023-07-29T08:54:39;6.35;;;2.72;;
72156;SDS011;60035;52.122;5.406;2023-07-29T08:57:06;5.68;;;2.17;;
72156;SDS011;60035;52.122;5.406;2023-07-29T08:59:33;6.30;;;2.20;;
72156;SDS011;60035;52.122;5.406;2023-07-29T09:02:00;5.10;;;2.20;;
72156;SDS011;60035;52.122;5.406;2023-07-29T09:04:27;6.65;;;2.50;;
72156;SDS011;60035;52.122;5.406;2023-07-29T09:06:59;5.55;;;2.25;;
72156;SDS011;60035;52.122;5.406;2023-07-29T09:09:26;6.18;;;2.90;;
72156;SDS011;60035;52.122;5.406;2023-07-29T09:11:53;5.70;;;2.60;;
72156;SDS011;60035;52.122;5.406;2023-07-29T09:14:19;7.05;;;2.65;;
72156;SDS011;60035;52.122;5.406;2023-07-29T09:16:46;6.95;;;3.33;;
72156;SDS011;60035;52.122;5.406;2023-07-29T09:19:13;6.35;;;3.53;;
72156;SDS011;60035;52.122;5.406;2023-07-29T09:21:40;7.90;;;3.33;;
72156;SDS011;60035;52.122;5.406;2023-07-29T09:24:07;6.20;;;2.90;;
72156;SDS011;60035;52.122;5.406;2023-07-29T09:26:34;6.30;;;3.40;;
72156;SDS011;60035;52.122;5.406;2023-07-29T09:29:02;6.63;;;3.13;;
72156;SDS011;60035;52.122;5.406;2023-07-29T09:31:29;6.47;;;3.30;;
72156;SDS011;60035;52.122;5.406;2023-07-29T09:33:57;6.13;;;3.38;;
72156;SDS011;60035;52.122;5.406;2023-07-29T09:36:25;6.72;;;2.90;;
72156;SDS011;60035;52.122;5.406;2023-07-29T09:38:52;7.25;;;3.30;;
72156;SDS011;60035;52.122;5.406;2023-07-29T09:41:21;6.53;;;2.80;;
72156;SDS011;60035;52.122;5.406;2023-07-29T09:43:54;7.78;;;3.13;;
72156;SDS011;60035;52.122;5.406;2023-07-29T09:46:25;8.18;;;3.35;;
72156;SDS011;60035;52.122;5.406;2023-07-29T09:48:59;6.40;;;3.05;;
72156;SDS011;60035;52.122;5.406;2023-07-29T09:51:28;6.80;;;2.80;;
72156;SDS011;60035;52.122;5.406;2023-07-29T09:53:54;8.90;;;3.33;;
72156;SDS011;60035;52.122;5.406;2023-07-29T09:56:25;8.15;;;3.60;;
72156;SDS011;60035;52.122;5.406;2023-07-29T09:58:58;7.18;;;3.47;;
72156;SDS011;60035;52.122;5.406;2023-07-29T10:01:26;8.00;;;4.30;;
72156;SDS011;60035;52.122;5.406;2023-07-29T10:03:53;7.50;;;3.72;;
72156;SDS011;60035;52.122;5.406;2023-07-29T10:06:22;8.15;;;4.25;;
72156;SDS011;60035;52.122;5.406;2023-07-29T10:08:49;10.32;;;4.15;;
72156;SDS011;60035;52.122;5.406;2023-07-29T10:11:17;10.05;;;4.85;;
72156;SDS011;60035;52.122;5.406;2023-07-29T10:13:46;12.45;;;4.75;;
72156;SDS011;60035;52.122;5.406;2023-07-29T10:16:32;8.30;;;4.40;;
72156;SDS011;60035;52.122;5.406;2023-07-29T10:18:59;8.60;;;4.40;;
72156;SDS011;60035;52.122;5.406;2023-07-29T10:21:26;9.23;;;4.55;;
72156;SDS011;60035;52.122;5.406;2023-07-29T10:23:53;9.18;;;4.50;;
72156;SDS011;60035;52.122;5.406;2023-07-29T10:26:26;9.50;;;4.93;;
72156;SDS011;60035;52.122;5.406;2023-07-29T10:28:56;8.27;;;4.68;;
72156;SDS011;60035;52.122;5.406;2023-07-29T10:31:31;9.52;;;5.30;;
72156;SDS011;60035;52.122;5.406;2023-07-29T10:33:58;9.77;;;5.60;;
72156;SDS011;60035;52.122;5.406;2023-07-29T10:36:25;9.90;;;4.78;;
72156;SDS011;60035;52.122;5.406;2023-07-29T10:38:52;9.85;;;5.00;;
72156;SDS011;60035;52.122;5.406;2023-07-29T10:41:19;10.40;;;4.78;;
72156;SDS011;60035;52.122;5.406;2023-07-29T10:43:46;10.93;;;4.38;;
72156;SDS011;60035;52.122;5.406;2023-07-29T10:46:16;8.68;;;4.93;;
72156;SDS011;60035;52.122;5.406;2023-07-29T10:48:51;9.18;;;4.53;;
72156;SDS011;60035;52.122;5.406;2023-07-29T10:51:27;9.45;;;4.45;;
72156;SDS011;60035;52.122;5.406;2023-07-29T10:54:13;8.43;;;4.70;;
72156;SDS011;60035;52.122;5.406;2023-07-29T10:56:46;9.25;;;4.55;;
72156;SDS011;60035;52.122;5.406;2023-07-29T11:02:12;7.53;;;4.05;;
72156;SDS011;60035;52.122;5.406;2023-07-29T11:04:48;5.93;;;3.10;;
72156;SDS011;60035;52.122;5.406;2023-07-29T11:09:54;4.70;;;2.33;;
72156;SDS011;60035;52.122;5.406;2023-07-29T11:17:42;4.43;;;1.55;;
72156;SDS011;60035;52.122;5.406;2023-07-29T11:20:20;3.67;;;1.55;;
72156;SDS011;60035;52.122;5.406;2023-07-29T11:22:48;2.22;;;1.10;;
72156;SDS011;60035;52.122;5.406;2023-07-29T11:25:16;3.50;;;1.60;;
72156;SDS011;60035;52.122;5.406;2023-07-29T11:27:44;2.78;;;1.20;;
72156;SDS011;60035;52.122;5.406;2023-07-29T11:30:11;3.25;;;1.33;;
72156;SDS011;60035;52.122;5.406;2023-07-29T11:32:39;3.65;;;1.40;;
72156;SDS011;60035;52.122;5.406;2023-07-29T11:35:11;3.85;;;1.27;;
72156;SDS011;60035;52.122;5.406;2023-07-29T11:37:48;4.07;;;1.38;;
72156;SDS011;60035;52.122;5.406;2023-07-29T11:40:19;2.80;;;1.20;;
72156;SDS011;60035;52.122;5.406;2023-07-29T11:42:48;6.20;;;1.45;;
72156;SDS011;60035;52.122;5.406;2023-07-29T11:45:19;3.17;;;1.33;;
72156;SDS011;60035;52.122;5.406;2023-07-29T11:47:47;4.18;;;1.30;;
72156;SDS011;60035;52.122;5.406;2023-07-29T11:50:14;3.75;;;1.27;;
72156;SDS011;60035;52.122;5.406;2023-07-29T11:52:45;3.70;;;1.30;;
72156;SDS011;60035;52.122;5.406;2023-07-29T11:55:13;3.45;;;1.20;;
72156;SDS011;60035;52.122;5.406;2023-07-29T11:57:41;2.83;;;1.33;;
72156;SDS011;60035;52.122;5.406;2023-07-29T12:00:09;4.57;;;1.15;;
72156;SDS011;60035;52.122;5.406;2023-07-29T12:02:39;3.58;;;1.45;;
72156;SDS011;60035;52.122;5.406;2023-07-29T12:05:08;4.03;;;1.17;;
72156;SDS011;60035;52.122;5.406;2023-07-29T12:07:41;4.47;;;1.35;;
72156;SDS011;60035;52.122;5.406;2023-07-29T12:10:09;3.30;;;1.15;;
72156;SDS011;60035;52.122;5.406;2023-07-29T12:12:46;4.88;;;1.88;;
72156;SDS011;60035;52.122;5.406;2023-07-29T12:15:13;7.90;;;1.60;;
72156;SDS011;60035;52.122;5.406;2023-07-29T12:17:48;3.30;;;1.42;;
72156;SDS011;60035;52.122;5.406;2023-07-29T12:20:15;4.53;;;1.25;;
72156;SDS011;60035;52.122;5.406;2023-07-29T12:22:41;3.88;;;1.40;;
72156;SDS011;60035;52.122;5.406;2023-07-29T12:25:08;3.50;;;1.42;;
72156;SDS011;60035;52.122;5.406;2023-07-29T12:27:34;3.47;;;1.40;;
72156;SDS011;60035;52.122;5.406;2023-07-29T12:30:01;4.53;;;1.48;;
72156;SDS011;60035;52.122;5.406;2023-07-29T12:32:31;3.90;;;1.70;;
72156;SDS011;60035;52.122;5.406;2023-07-29T12:34:58;3.92;;;1.40;;
72156;SDS011;60035;52.122;5.406;2023-07-29T12:37:33;3.22;;;1.27;;
72156;SDS011;60035;52.122;5.406;2023-07-29T12:39:59;3.60;;;1.50;;
72156;SDS011;60035;52.122;5.406;2023-07-29T12:42:26;3.15;;;1.30;;
72156;SDS011;60035;52.122;5.406;2023-07-29T12:44:53;4.20;;;1.70;;
72156;SDS011;60035;52.122;5.406;2023-07-29T12:47:21;3.42;;;1.75;;
72156;SDS011;60035;52.122;5.406;2023-07-29T12:49:48;3.53;;;1.45;;
72156;SDS011;60035;52.122;5.406;2023-07-29T12:52:14;3.63;;;1.40;;
72156;SDS011;60035;52.122;5.406;2023-07-29T12:54:41;3.28;;;1.30;;
72156;SDS011;60035;52.122;5.406;2023-07-29T12:57:10;3.65;;;1.30;;
72156;SDS011;60035;52.122;5.406;2023-07-29T12:59:36;4.15;;;1.35;;
72156;SDS011;60035;52.122;5.406;2023-07-29T13:02:03;3.30;;;1.30;;
72156;SDS011;60035;52.122;5.406;2023-07-29T13:04:33;5.28;;;1.58;;
72156;SDS011;60035;52.122;5.406;2023-07-29T13:06:59;3.55;;;1.30;;
72156;SDS011;60035;52.122;5.406;2023-07-29T13:09:26;3.90;;;1.45;;
72156;SDS011;60035;52.122;5.406;2023-07-29T13:11:52;2.53;;;1.10;;
72156;SDS011;60035;52.122;5.406;2023-07-29T13:14:19;2.55;;;1.33;;
72156;SDS011;60035;52.122;5.406;2023-07-29T13:16:45;4.43;;;1.15;;
72156;SDS011;60035;52.122;5.406;2023-07-29T13:19:12;2.20;;;1.00;;
72156;SDS011;60035;52.122;5.406;2023-07-29T13:21:39;2.70;;;0.88;;
72156;SDS011;60035;52.122;5.406;2023-07-29T13:24:05;3.15;;;1.15;;
72156;SDS011;60035;52.122;5.406;2023-07-29T13:26:32;3.47;;;1.00;;
72156;SDS011;60035;52.122;5.406;2023-07-29T13:28:58;2.25;;;1.23;;
72156;SDS011;60035;52.122;5.406;2023-07-29T13:31:25;3.22;;;1.10;;
72156;SDS011;60035;52.122;5.406;2023-07-29T13:33:51;2.53;;;0.90;;
72156;SDS011;60035;52.122;5.406;2023-07-29T13:36:18;4.07;;;1.02;;
72156;SDS011;60035;52.122;5.406;2023-07-29T13:38:46;2.50;;;1.02;;
72156;SDS011;60035;52.122;5.406;2023-07-29T13:41:16;3.75;;;1.20;;
72156;SDS011;60035;52.122;5.406;2023-07-29T13:43:50;1.85;;;0.77;;
72156;SDS011;60035;52.122;5.406;2023-07-29T13:46:16;3.17;;;1.08;;
72156;SDS011;60035;52.122;5.406;2023-07-29T13:48:46;3.25;;;1.05;;
72156;SDS011;60035;52.122;5.406;2023-07-29T13:51:13;2.42;;;1.10;;
72156;SDS011;60035;52.122;5.406;2023-07-29T13:53:39;2.58;;;1.10;;
72156;SDS011;60035;52.122;5.406;2023-07-29T13:56:09;3.67;;;1.95;;
72156;SDS011;60035;52.122;5.406;2023-07-29T13:58:35;3.05;;;1.25;;
72156;SDS011;60035;52.122;5.406;2023-07-29T14:01:02;3.22;;;1.00;;
72156;SDS011;60035;52.122;5.406;2023-07-29T14:03:29;3.65;;;1.10;;
72156;SDS011;60035;52.122;5.406;2023-07-29T14:05:55;3.83;;;1.70;;
72156;SDS011;60035;52.122;5.406;2023-07-29T14:08:22;3.70;;;1.85;;
72156;SDS011;60035;52.122;5.406;2023-07-29T14:10:51;3.50;;;1.30;;
72156;SDS011;60035;52.122;5.406;2023-07-29T14:13:18;4.15;;;1.50;;
72156;SDS011;60035;52.122;5.406;2023-07-29T14:15:44;2.88;;;1.02;;
72156;SDS011;60035;52.122;5.406;2023-07-29T14:18:11;3.45;;;1.33;;
72156;SDS011;60035;52.122;5.406;2023-07-29T14:20:37;3.53;;;1.20;;
72156;SDS011;60035;52.122;5.406;2023-07-29T14:23:04;3.08;;;1.30;;
72156;SDS011;60035;52.122;5.406;2023-07-29T14:25:31;2.88;;;1.20;;
72156;SDS011;60035;52.122;5.406;2023-07-29T14:27:57;2.58;;;1.30;;
72156;SDS011;60035;52.122;5.406;2023-07-29T14:30:24;2.92;;;1.23;;
72156;SDS011;60035;52.122;5.406;2023-07-29T14:32:50;3.33;;;1.23;;
72156;SDS011;60035;52.122;5.406;2023-07-29T14:35:17;4.53;;;1.15;;
72156;SDS011;60035;52.122;5.406;2023-07-29T14:37:44;3.60;;;1.40;;
72156;SDS011;60035;52.122;5.406;2023-07-29T14:40:10;3.28;;;1.27;;
72156;SDS011;60035;52.122;5.406;2023-07-29T14:42:37;2.53;;;1.10;;
72156;SDS011;60035;52.122;5.406;2023-07-29T14:45:03;4.75;;;1.10;;
72156;SDS011;60035;52.122;5.406;2023-07-29T14:47:31;11.70;;;3.25;;
72156;SDS011;60035;52.122;5.406;2023-07-29T14:50:01;4.38;;;1.40;;
72156;SDS011;60035;52.122;5.406;2023-07-29T14:52:30;2.38;;;0.73;;
72156;SDS011;60035;52.122;5.406;2023-07-29T14:54:57;8.63;;;2.25;;
72156;SDS011;60035;52.122;5.406;2023-07-29T14:57:24;1.80;;;0.90;;
72156;SDS011;60035;52.122;5.406;2023-07-29T14:59:50;4.90;;;1.55;;
72156;SDS011;60035;52.122;5.406;2023-07-29T15:02:17;3.22;;;1.15;;
72156;SDS011;60035;52.122;5.406;2023-07-29T15:04:44;3.25;;;1.00;;
72156;SDS011;60035;52.122;5.406;2023-07-29T15:07:11;2.28;;;0.93;;
72156;SDS011;60035;52.122;5.406;2023-07-29T15:09:37;4.03;;;0.80;;